Bushnell, Nebraska
Current Conditions -  °F | °C
As of 9:15 AM on Saturday 20 Dec 2014 (Local Time) from KIBM Reporting Station
Clear Clear  
Wind Chill: 31°   Ceiling: Unl
Heat Index: 38°   Visibility: 10mi
Dew Point: 25°   Wind: 9mph
Humidity: 61%   Direction: 280°W
Pressure: 29.99"   Gusts: NA
Location:  41.23°N, 103.89°W
Report Text: KIBM 201615Z AUTO 28008KT 10SM CLR 03/M04 A2999 RMK AO2 T00311038
Loading
Personal Weather Stations






























Interactive Weather Map New forecast layout! Learn more

10-Day Weather Forecast

Advertisements
Track Severe Weather on mobile